Time;durP1;ratioP1;P1;durP2;ratioP2;P2;SDS_P1;SDS_P2;PMS_P1;PMS_P2;Temp;Humidity;BMP_temperature;BMP_pressure;BME280_temperature;BME280_humidity;BME280_pressure;Samples;Min_cycle;Max_cycle;Signal;HPM_P1;HPM_P2
2024/02/05 00:00:55;;;;;;;506.23;484.80;;;10.90;99.90;;;;;;4967987;28;20451;-72
2024/02/05 00:03:23;;;;;;;499.63;478.63;;;11.00;99.90;;;;;;4972177;28;20487;-72
2024/02/05 00:05:50;;;;;;;503.70;481.53;;;11.00;99.90;;;;;;4966977;28;20466;-72
2024/02/05 00:08:17;;;;;;;505.00;482.93;;;11.00;99.90;;;;;;4980971;28;20453;-72
2024/02/05 00:10:43;;;;;;;491.53;469.73;;;10.90;99.90;;;;;;4953686;28;20456;-72
2024/02/05 00:13:10;;;;;;;452.87;432.43;;;11.00;99.90;;;;;;4961674;28;20478;-72
2024/02/05 00:15:37;;;;;;;461.80;441.70;;;11.10;99.90;;;;;;4976832;28;20464;-72
2024/02/05 00:18:04;;;;;;;466.10;445.70;;;11.00;99.90;;;;;;4978063;28;20509;-72
2024/02/05 00:20:33;;;;;;;451.80;432.60;;;11.00;99.90;;;;;;4978657;28;20497;-73
2024/02/05 00:23:00;;;;;;;443.17;422.90;;;11.10;99.90;;;;;;4953729;28;20490;-72
2024/02/05 00:25:27;;;;;;;437.57;418.47;;;11.10;99.90;;;;;;4977889;28;20450;-73
2024/02/05 00:27:54;;;;;;;408.70;391.30;;;11.10;99.90;;;;;;4954135;28;20455;-73
2024/02/05 00:30:21;;;;;;;419.83;401.60;;;11.10;99.90;;;;;;4954576;28;20964;-72
2024/02/05 00:32:47;;;;;;;392.90;375.90;;;11.10;99.90;;;;;;4977588;28;21014;-72
2024/02/05 00:35:14;;;;;;;381.70;364.33;;;11.10;99.90;;;;;;4959875;28;20966;-73
2024/02/05 00:37:43;;;;;;;381.50;365.87;;;11.10;99.90;;;;;;4969319;28;20957;-73
2024/02/05 00:40:10;;;;;;;379.93;364.47;;;11.10;99.90;;;;;;4984187;28;20793;-73
2024/02/05 00:42:37;;;;;;;360.40;345.07;;;11.20;99.90;;;;;;4968097;28;20489;-72
2024/02/05 00:45:05;;;;;;;354.07;338.97;;;11.10;99.90;;;;;;4977699;28;20477;-72
2024/02/05 00:47:31;;;;;;;326.30;313.60;;;11.10;99.90;;;;;;4972761;28;20976;-73
2024/02/05 00:49:58;;;;;;;345.70;331.10;;;11.10;99.90;;;;;;4972723;28;20455;-72
2024/02/05 00:52:25;;;;;;;325.47;312.27;;;11.10;99.90;;;;;;4970881;28;20482;-72
2024/02/05 00:54:53;;;;;;;324.03;310.93;;;11.10;99.90;;;;;;4954036;28;20555;-72
2024/02/05 00:57:20;;;;;;;291.17;279.67;;;11.10;99.90;;;;;;4962722;28;20851;-73
2024/02/05 00:59:47;;;;;;;319.63;306.67;;;11.20;99.90;;;;;;4972857;28;20470;-72
2024/02/05 01:02:13;;;;;;;315.27;302.17;;;11.10;99.90;;;;;;4972629;28;20485;-73
2024/02/05 01:04:40;;;;;;;315.33;302.23;;;11.10;99.90;;;;;;4968856;28;20467;-73
2024/02/05 01:07:08;;;;;;;311.67;298.03;;;11.00;99.90;;;;;;4953205;28;20470;-73
2024/02/05 01:09:35;;;;;;;314.57;302.10;;;11.10;99.90;;;;;;4975471;28;20462;-72
2024/02/05 01:12:04;;;;;;;294.03;281.43;;;11.10;99.90;;;;;;4962850;28;20463;-72
2024/02/05 01:14:31;;;;;;;297.07;285.03;;;11.10;99.90;;;;;;4971662;28;20447;-72
2024/02/05 01:16:59;;;;;;;292.17;280.20;;;11.00;99.90;;;;;;4972898;28;20455;-72
2024/02/05 01:19:26;;;;;;;289.97;277.70;;;11.00;99.90;;;;;;4972655;28;20462;-74
2024/02/05 01:21:53;;;;;;;296.77;284.30;;;11.00;99.90;;;;;;4972126;28;20451;-72
2024/02/05 01:24:20;;;;;;;289.47;277.13;;;11.10;99.90;;;;;;4976463;28;20492;-72
2024/02/05 01:26:46;;;;;;;276.77;264.93;;;11.10;99.90;;;;;;4976584;28;20462;-73
2024/02/05 01:29:14;;;;;;;276.60;265.53;;;11.10;99.90;;;;;;4984289;28;20460;-75
2024/02/05 01:31:43;;;;;;;275.00;264.07;;;11.10;99.90;;;;;;4956565;28;20462;-73
2024/02/05 01:34:10;;;;;;;270.47;259.50;;;11.10;99.90;;;;;;4956693;28;20479;-73
2024/02/05 01:36:37;;;;;;;273.30;261.60;;;11.10;99.90;;;;;;4981195;28;20910;-72
2024/02/05 01:39:04;;;;;;;260.90;250.20;;;11.10;99.90;;;;;;4978702;28;20450;-72
2024/02/05 01:41:31;;;;;;;258.43;247.87;;;11.00;99.90;;;;;;4976750;28;20854;-72
2024/02/05 01:43:58;;;;;;;250.50;240.67;;;11.10;99.90;;;;;;4976042;28;20859;-72
2024/02/05 01:46:32;;;;;;;264.43;253.93;;;11.00;99.90;;;;;;4974385;28;20456;-72
2024/02/05 01:49:02;;;;;;;257.53;246.63;;;11.00;99.90;;;;;;4970612;28;20462;-73
2024/02/05 01:51:33;;;;;;;248.13;238.57;;;11.10;99.90;;;;;;4973780;28;20462;-72
2024/02/05 01:53:59;;;;;;;244.77;235.07;;;11.00;99.90;;;;;;4972828;28;20480;-72
2024/02/05 01:56:31;;;;;;;248.93;239.27;;;11.00;99.90;;;;;;4958355;28;20546;-73
2024/02/05 01:58:59;;;;;;;245.73;236.13;;;11.00;99.90;;;;;;4975647;28;20962;-73
2024/02/05 02:01:29;;;;;;;260.53;250.47;;;11.00;99.90;;;;;;4975639;28;21065;-73
2024/02/05 02:03:56;;;;;;;253.13;242.53;;;11.00;99.90;;;;;;4977878;28;20488;-73
2024/02/05 02:06:25;;;;;;;259.60;249.30;;;10.90;99.90;;;;;;4975330;28;20454;-73
2024/02/05 02:08:52;;;;;;;245.47;235.90;;;11.10;99.90;;;;;;4982021;28;20462;-72
2024/02/05 02:11:19;;;;;;;232.13;221.60;;;11.00;99.90;;;;;;4982458;28;20458;-72
2024/02/05 02:13:46;;;;;;;220.53;211.93;;;11.00;99.90;;;;;;4960472;28;20475;-73
2024/02/05 02:16:20;;;;;;;242.93;233.37;;;11.00;99.90;;;;;;4975799;28;20459;-75
2024/02/05 02:18:49;;;;;;;239.57;230.37;;;11.00;99.90;;;;;;4980238;28;20837;-73
2024/02/05 02:21:20;;;;;;;255.07;245.30;;;11.00;99.90;;;;;;4962049;28;20455;-72
2024/02/05 02:23:49;;;;;;;241.97;232.30;;;11.00;99.90;;;;;;4975342;28;20487;-73
2024/02/05 02:26:16;;;;;;;246.77;237.27;;;11.00;99.90;;;;;;4975047;28;20978;-73
2024/02/05 02:28:43;;;;;;;243.93;234.40;;;11.00;99.90;;;;;;4979406;28;20465;-73
2024/02/05 02:31:10;;;;;;;238.87;229.77;;;10.90;99.90;;;;;;4970930;28;20470;-72
2024/02/05 02:33:45;;;;;;;225.80;216.67;;;11.00;99.90;;;;;;4974310;28;20474;-73
2024/02/05 02:36:15;;;;;;;238.23;229.03;;;11.10;99.90;;;;;;4974918;28;20458;-73
2024/02/05 02:38:47;;;;;;;229.83;221.47;;;11.10;99.90;;;;;;4974911;28;20476;-73
2024/02/05 02:41:19;;;;;;;226.47;217.73;;;11.10;99.90;;;;;;4982520;28;20458;-73
2024/02/05 02:43:52;;;;;;;237.83;228.13;;;10.90;99.90;;;;;;4971803;28;20496;-73
2024/02/05 02:46:19;;;;;;;232.23;224.07;;;10.90;99.90;;;;;;4972516;28;20462;-73
2024/02/05 02:48:46;;;;;;;212.03;203.53;;;10.90;99.90;;;;;;4978605;28;20451;-73
2024/02/05 02:51:13;;;;;;;211.93;204.30;;;10.90;99.90;;;;;;4954905;28;20462;-74
2024/02/05 02:53:40;;;;;;;224.77;214.70;;;10.90;99.90;;;;;;4955694;28;20467;-72
2024/02/05 02:56:07;;;;;;;223.47;214.97;;;10.90;99.90;;;;;;4955632;28;20458;-73
2024/02/05 02:58:35;;;;;;;222.07;214.17;;;10.90;99.90;;;;;;4973933;28;20470;-73
2024/02/05 03:01:03;;;;;;;239.37;230.57;;;10.90;99.90;;;;;;4974520;28;20458;-72
2024/02/05 03:03:30;;;;;;;230.27;221.87;;;10.90;99.90;;;;;;4982478;28;20483;-73
2024/02/05 03:05:57;;;;;;;225.30;216.37;;;10.90;99.90;;;;;;4976512;28;20467;-72
2024/02/05 03:08:24;;;;;;;231.47;222.53;;;10.90;99.90;;;;;;4974155;28;20465;-73
2024/02/05 03:10:51;;;;;;;224.23;215.07;;;10.90;99.90;;;;;;4972671;28;20546;-73
2024/02/05 03:13:18;;;;;;;220.00;211.17;;;10.90;99.90;;;;;;4973818;28;20475;-73
2024/02/05 03:15:46;;;;;;;228.30;219.03;;;11.00;99.90;;;;;;4967562;28;20467;-73
2024/02/05 03:18:13;;;;;;;213.67;205.77;;;10.80;99.90;;;;;;4974253;28;21059;-75
2024/02/05 03:20:42;;;;;;;202.63;194.30;;;10.80;99.90;;;;;;4974013;28;20962;-73
2024/02/05 03:23:10;;;;;;;180.37;173.07;;;10.90;99.90;;;;;;4981594;28;20855;-73
2024/02/05 03:25:38;;;;;;;183.93;176.70;;;10.90;99.90;;;;;;4969791;28;20458;-73
2024/02/05 03:28:06;;;;;;;185.53;177.70;;;10.90;99.90;;;;;;4978849;28;20506;-73
2024/02/05 03:30:34;;;;;;;194.47;187.10;;;10.80;99.90;;;;;;4973643;28;21201;-73
2024/02/05 03:33:04;;;;;;;168.10;161.33;;;10.90;99.90;;;;;;4975345;28;20475;-73
2024/02/05 03:35:31;;;;;;;170.40;163.73;;;10.80;99.90;;;;;;4957218;28;20515;-73
2024/02/05 03:37:58;;;;;;;180.87;173.17;;;10.80;99.90;;;;;;4974107;28;20459;-72
2024/02/05 03:40:26;;;;;;;175.17;166.87;;;10.80;99.90;;;;;;4975311;28;20454;-73
2024/02/05 03:42:54;;;;;;;199.43;192.13;;;10.90;99.90;;;;;;4966487;28;20571;-73
2024/02/05 03:45:21;;;;;;;176.10;168.90;;;10.80;99.90;;;;;;4955053;28;20459;-73
2024/02/05 03:47:48;;;;;;;194.97;186.00;;;10.80;99.90;;;;;;4974274;28;20461;-73
2024/02/05 03:50:17;;;;;;;171.57;164.23;;;10.70;99.90;;;;;;4973798;28;20467;-74
2024/02/05 03:52:45;;;;;;;160.00;152.10;;;10.80;99.90;;;;;;4977722;28;20477;-73
2024/02/05 03:55:13;;;;;;;158.87;151.43;;;10.80;99.90;;;;;;4961651;28;20483;-74
2024/02/05 03:57:42;;;;;;;124.23;118.33;;;10.80;99.90;;;;;;4954347;28;20455;-73
2024/02/05 04:00:10;;;;;;;128.90;123.00;;;10.80;99.90;;;;;;4969215;28;20461;-74
2024/02/05 04:02:38;;;;;;;124.83;119.40;;;10.80;99.90;;;;;;4978366;28;20479;-72
2024/02/05 04:05:05;;;;;;;140.23;133.73;;;10.80;99.90;;;;;;4954394;28;20483;-72
2024/02/05 04:07:33;;;;;;;124.40;118.93;;;10.80;99.90;;;;;;4972696;28;20455;-73
2024/02/05 04:10:00;;;;;;;114.00;108.23;;;10.80;99.90;;;;;;4975057;28;20459;-73
2024/02/05 04:12:27;;;;;;;117.00;111.73;;;10.80;99.90;;;;;;4963637;28;20494;-73
2024/02/05 04:14:54;;;;;;;105.53;100.03;;;10.80;99.90;;;;;;4973420;28;20552;-72
2024/02/05 04:17:21;;;;;;;126.33;119.60;;;10.80;99.90;;;;;;4980549;28;20536;-74
2024/02/05 04:19:47;;;;;;;116.37;111.10;;;10.70;99.90;;;;;;4954559;28;20456;-72
2024/02/05 04:22:14;;;;;;;125.33;119.63;;;10.70;99.90;;;;;;4953787;28;20480;-73
2024/02/05 04:24:42;;;;;;;110.63;105.80;;;10.90;99.90;;;;;;4954061;28;20494;-74
2024/02/05 04:27:09;;;;;;;122.57;116.90;;;10.80;99.90;;;;;;4969232;28;20947;-72
2024/02/05 04:29:36;;;;;;;121.03;115.03;;;10.60;99.90;;;;;;4978502;28;20463;-73
2024/02/05 04:32:03;;;;;;;118.00;112.80;;;10.70;99.90;;;;;;4968229;28;20458;-73
2024/02/05 04:34:30;;;;;;;137.30;131.47;;;10.70;99.90;;;;;;4973301;28;20450;-73
2024/02/05 04:36:57;;;;;;;127.90;121.57;;;10.60;99.90;;;;;;4973267;28;20463;-72
2024/02/05 04:39:24;;;;;;;142.47;135.77;;;10.60;99.90;;;;;;4973054;28;20451;-73
2024/02/05 04:41:52;;;;;;;111.93;105.90;;;10.60;99.90;;;;;;4972720;28;20458;-73
2024/02/05 04:44:19;;;;;;;120.10;114.77;;;10.70;99.90;;;;;;4973142;28;20875;-72
2024/02/05 04:46:46;;;;;;;112.50;107.33;;;10.60;99.90;;;;;;4973114;28;20455;-74
2024/02/05 04:49:13;;;;;;;100.90;95.50;;;10.80;99.90;;;;;;4981106;28;20457;-73
2024/02/05 04:51:40;;;;;;;88.50;83.50;;;10.60;99.90;;;;;;4965098;28;20454;-73
2024/02/05 04:54:07;;;;;;;85.63;80.83;;;10.60;99.90;;;;;;4972875;28;21000;-73
2024/02/05 04:56:34;;;;;;;90.73;85.53;;;10.70;99.90;;;;;;4975619;28;20461;-73
2024/02/05 04:59:02;;;;;;;81.27;76.43;;;10.70;99.90;;;;;;4981135;28;20549;-74
2024/02/05 05:01:29;;;;;;;84.03;79.83;;;10.70;99.90;;;;;;4984600;28;20449;-73
2024/02/05 05:03:56;;;;;;;82.80;78.47;;;10.70;99.90;;;;;;4976990;28;20486;-73
2024/02/05 05:06:22;;;;;;;69.90;66.23;;;10.70;99.90;;;;;;4976781;28;20461;-73
2024/02/05 05:08:49;;;;;;;76.07;70.97;;;10.80;99.90;;;;;;4976682;28;20458;-73
2024/02/05 05:11:23;;;;;;;83.37;78.47;;;10.60;99.90;;;;;;4976348;28;20959;-73
2024/02/05 05:13:50;;;;;;;76.87;72.83;;;10.60;99.90;;;;;;4981541;28;20540;-73
2024/02/05 05:16:19;;;;;;;69.83;66.23;;;10.60;99.90;;;;;;4979735;28;20561;-75
2024/02/05 05:18:46;;;;;;;76.63;73.13;;;10.60;99.90;;;;;;4977372;28;20462;-73
2024/02/05 05:21:13;;;;;;;69.90;65.87;;;10.60;99.90;;;;;;4983229;28;20457;-74
2024/02/05 05:23:41;;;;;;;76.97;72.60;;;10.50;99.90;;;;;;4973780;28;20475;-73
2024/02/05 05:26:08;;;;;;;76.13;72.43;;;10.50;99.90;;;;;;4957236;28;20846;-73
2024/02/05 05:28:38;;;;;;;70.77;65.83;;;10.50;99.90;;;;;;4976022;28;20465;-73
2024/02/05 05:31:05;;;;;;;72.13;68.63;;;10.50;99.90;;;;;;4977288;28;20463;-72
2024/02/05 05:33:33;;;;;;;72.50;67.63;;;10.60;99.90;;;;;;4956801;28;20986;-73
2024/02/05 05:36:00;;;;;;;68.37;64.17;;;10.70;99.90;;;;;;4956855;28;20464;-72
2024/02/05 05:38:27;;;;;;;72.33;68.23;;;10.50;99.90;;;;;;4967026;28;20455;-73
2024/02/05 05:40:54;;;;;;;76.40;71.50;;;10.50;99.90;;;;;;4981814;28;20453;-72
2024/02/05 05:43:21;;;;;;;73.43;68.67;;;10.50;99.90;;;;;;4978643;28;20862;-73
2024/02/05 05:45:48;;;;;;;67.00;63.10;;;10.60;99.90;;;;;;4980841;28;20507;-72
2024/02/05 05:48:15;;;;;;;58.43;54.40;;;10.50;99.90;;;;;;4963123;28;20831;-74
2024/02/05 05:50:43;;;;;;;54.07;50.37;;;10.50;99.90;;;;;;4960419;28;20947;-74
2024/02/05 05:53:09;;;;;;;59.87;56.03;;;10.50;99.90;;;;;;4976193;28;20481;-74
2024/02/05 05:55:36;;;;;;;62.13;57.53;;;10.50;99.90;;;;;;4976848;28;20458;-73
2024/02/05 05:58:04;;;;;;;58.27;55.20;;;10.50;99.90;;;;;;4976491;28;20872;-73
2024/02/05 06:00:31;;;;;;;49.13;45.60;;;10.50;99.90;;;;;;4984416;28;20550;-74
2024/02/05 06:02:57;;;;;;;49.03;44.30;;;10.50;99.90;;;;;;4977712;28;20482;-73
2024/02/05 06:05:24;;;;;;;45.63;42.33;;;10.50;99.90;;;;;;4974501;28;20487;-74
2024/02/05 06:07:52;;;;;;;48.33;44.83;;;10.40;99.90;;;;;;4983981;28;20451;-72
2024/02/05 06:10:19;;;;;;;44.30;40.87;;;10.40;99.90;;;;;;4974463;28;20977;-73
2024/02/05 06:12:46;;;;;;;50.13;46.83;;;10.40;99.90;;;;;;4956141;28;20482;-73
2024/02/05 06:15:14;;;;;;;49.67;46.17;;;10.40;99.90;;;;;;4972113;28;20482;-74
2024/02/05 06:17:41;;;;;;;46.63;43.53;;;10.40;99.90;;;;;;4978607;28;20486;-73
2024/02/05 06:20:08;;;;;;;47.93;44.00;;;10.40;99.90;;;;;;4964076;28;20462;-73
2024/02/05 06:22:36;;;;;;;43.37;39.73;;;10.40;99.90;;;;;;4964621;28;20486;-72
2024/02/05 06:25:05;;;;;;;42.53;39.37;;;10.40;99.90;;;;;;4974665;28;20870;-74
2024/02/05 06:27:32;;;;;;;41.80;38.30;;;10.30;99.90;;;;;;4974991;28;20482;-73
2024/02/05 06:29:59;;;;;;;41.63;38.73;;;10.30;99.90;;;;;;4976230;28;20455;-74
2024/02/05 06:32:26;;;;;;;38.77;35.93;;;10.30;99.90;;;;;;4955419;28;20857;-73
2024/02/05 06:34:53;;;;;;;41.80;38.00;;;10.30;99.90;;;;;;4955046;28;20460;-73
2024/02/05 06:37:20;;;;;;;39.10;35.50;;;10.30;99.90;;;;;;4971894;28;20455;-75
2024/02/05 06:39:47;;;;;;;41.67;38.03;;;10.30;99.90;;;;;;4974794;28;20531;-74
2024/02/05 06:42:15;;;;;;;39.07;34.83;;;10.30;99.90;;;;;;4974323;28;20530;-75
2024/02/05 06:44:45;;;;;;;37.67;33.30;;;10.30;99.90;;;;;;4978094;28;20885;-73
2024/02/05 06:47:12;;;;;;;32.60;28.97;;;10.20;99.90;;;;;;4962847;28;20503;-74
2024/02/05 06:49:38;;;;;;;34.83;30.17;;;10.20;99.90;;;;;;4967050;28;20881;-74
2024/02/05 06:52:06;;;;;;;36.10;33.40;;;10.20;99.90;;;;;;4975119;28;20959;-74
2024/02/05 06:54:33;;;;;;;28.00;24.47;;;10.10;99.90;;;;;;4973768;28;20446;-73
2024/02/05 06:57:00;;;;;;;28.40;25.40;;;10.20;99.90;;;;;;4976362;28;20471;-73
2024/02/05 06:59:28;;;;;;;26.57;24.30;;;10.20;99.90;;;;;;4964965;28;20462;-74
2024/02/05 07:01:55;;;;;;;24.90;23.03;;;10.20;99.90;;;;;;4982304;28;20455;-74
2024/02/05 07:04:22;;;;;;;28.17;25.60;;;10.20;99.90;;;;;;4974240;28;20487;-73
2024/02/05 07:06:49;;;;;;;39.97;32.23;;;10.10;99.90;;;;;;4974524;28;20455;-74
2024/02/05 07:09:16;;;;;;;32.60;29.47;;;10.10;99.90;;;;;;4974158;28;20461;-73
2024/02/05 07:11:43;;;;;;;32.70;29.40;;;10.10;99.90;;;;;;4974265;28;20454;-73
2024/02/05 07:14:10;;;;;;;29.27;27.60;;;10.00;99.90;;;;;;4975018;28;20484;-74
2024/02/05 07:16:40;;;;;;;25.30;22.60;;;10.10;99.90;;;;;;4974245;28;20458;-73
2024/02/05 07:19:06;;;;;;;29.73;26.73;;;10.00;99.90;;;;;;4974278;28;20954;-74
2024/02/05 07:21:34;;;;;;;23.87;21.50;;;10.00;99.90;;;;;;4972749;28;20938;-74
2024/02/05 07:24:01;;;;;;;26.87;24.90;;;10.00;99.90;;;;;;4973551;28;20475;-74
2024/02/05 07:26:28;;;;;;;28.37;25.87;;;10.00;99.90;;;;;;4973678;28;20518;-74
2024/02/05 07:28:54;;;;;;;34.77;32.10;;;9.90;99.90;;;;;;4980032;28;20725;-74
2024/02/05 07:31:23;;;;;;;37.73;34.90;;;10.00;99.90;;;;;;4959773;28;20823;-74
2024/02/05 07:33:51;;;;;;;37.73;34.93;;;9.90;99.90;;;;;;4977363;28;20530;-73
2024/02/05 07:36:18;;;;;;;41.80;38.70;;;10.00;99.90;;;;;;4971152;28;20450;-74
2024/02/05 07:38:45;;;;;;;31.23;29.00;;;10.00;99.90;;;;;;4972903;28;20458;-74
2024/02/05 07:41:12;;;;;;;28.33;22.60;;;10.00;99.90;;;;;;4973688;28;20463;-73
2024/02/05 07:43:39;;;;;;;36.40;23.63;;;10.00;99.90;;;;;;4968962;28;20473;-72
2024/02/05 07:46:08;;;;;;;24.23;22.27;;;10.00;99.90;;;;;;4963005;28;20487;-74
2024/02/05 07:48:35;;;;;;;27.93;25.37;;;10.00;99.90;;;;;;4976102;28;20458;-73
2024/02/05 07:51:04;;;;;;;31.70;28.43;;;10.00;99.90;;;;;;4974825;28;20989;-73
2024/02/05 07:53:31;;;;;;;33.83;30.67;;;9.90;99.90;;;;;;4980709;28;20478;-73
2024/02/05 07:55:58;;;;;;;34.67;32.27;;;9.90;99.90;;;;;;4972647;28;20939;-73
2024/02/05 07:58:25;;;;;;;40.03;36.93;;;9.90;99.90;;;;;;4979125;28;20989;-74
2024/02/05 08:00:52;;;;;;;36.70;34.47;;;9.90;99.90;;;;;;4961107;28;20851;-73
2024/02/05 08:03:19;;;;;;;34.17;31.73;;;10.00;99.90;;;;;;4952543;28;20565;-73
2024/02/05 08:05:46;;;;;;;41.47;38.40;;;10.00;99.90;;;;;;4972386;28;20493;-74
2024/02/05 08:08:14;;;;;;;41.50;38.00;;;10.10;99.90;;;;;;4980833;28;20458;-74
2024/02/05 08:10:41;;;;;;;39.47;36.47;;;10.00;99.90;;;;;;4965054;28;20850;-74
2024/02/05 08:13:07;;;;;;;35.73;32.80;;;10.00;99.90;;;;;;4972687;28;20831;-74
2024/02/05 08:15:34;;;;;;;28.40;25.73;;;10.00;99.90;;;;;;4972840;28;20840;-74
2024/02/05 08:18:01;;;;;;;31.67;24.33;;;10.10;99.90;;;;;;4978845;28;20822;-74
2024/02/05 08:20:28;;;;;;;23.90;21.80;;;10.10;99.90;;;;;;4967550;28;20454;-73
2024/02/05 08:22:55;;;;;;;22.67;20.53;;;10.10;99.90;;;;;;4969099;28;20475;-73
2024/02/05 08:25:23;;;;;;;24.40;18.60;;;10.20;99.90;;;;;;4971316;28;21003;-73
2024/02/05 08:27:50;;;;;;;25.33;15.10;;;10.30;99.90;;;;;;4953054;28;20460;-74
2024/02/05 08:30:17;;;;;;;23.77;12.00;;;10.30;99.90;;;;;;4962831;28;20450;-73
2024/02/05 08:32:44;;;;;;;16.17;10.20;;;10.30;99.90;;;;;;4952941;28;20999;-73
2024/02/05 08:35:11;;;;;;;33.57;14.03;;;10.30;99.90;;;;;;4953049;28;20467;-74
2024/02/05 08:37:38;;;;;;;25.50;16.20;;;10.20;99.90;;;;;;4972470;28;20853;-73
2024/02/05 08:40:06;;;;;;;27.53;12.30;;;10.10;99.90;;;;;;4972365;28;20459;-73
2024/02/05 08:42:35;;;;;;;21.00;16.77;;;10.20;99.90;;;;;;4977378;28;20478;-73
2024/02/05 08:45:02;;;;;;;23.47;14.50;;;10.10;99.90;;;;;;4973810;28;20511;-73
2024/02/05 08:47:29;;;;;;;18.60;16.40;;;10.20;99.90;;;;;;4955571;28;20485;-74
2024/02/05 08:49:55;;;;;;;24.73;17.03;;;10.20;99.90;;;;;;4958486;28;20451;-75
2024/02/05 08:52:23;;;;;;;24.73;14.20;;;10.30;99.90;;;;;;4972172;28;20474;-73
2024/02/05 08:54:49;;;;;;;19.93;13.90;;;10.40;99.90;;;;;;4972470;28;20459;-74
2024/02/05 08:57:16;;;;;;;16.33;13.30;;;10.40;99.90;;;;;;4972448;28;20459;-75
2024/02/05 08:59:44;;;;;;;21.27;12.27;;;10.40;99.90;;;;;;4980460;28;20498;-74
2024/02/05 09:02:14;;;;;;;25.20;11.83;;;10.40;99.90;;;;;;4972280;28;20475;-75
2024/02/05 09:04:41;;;;;;;18.60;10.10;;;10.50;99.90;;;;;;4964546;28;20827;-74
2024/02/05 09:07:08;;;;;;;20.73;11.93;;;10.60;99.90;;;;;;4972153;28;20841;-73
2024/02/05 09:09:36;;;;;;;18.33;8.83;;;10.60;99.90;;;;;;4972331;28;20469;-74
2024/02/05 09:12:03;;;;;;;14.47;8.60;;;10.60;99.90;;;;;;4971475;28;20466;-73
2024/02/05 09:14:30;;;;;;;16.90;7.93;;;10.70;99.90;;;;;;4969200;28;20551;-74
2024/02/05 09:16:58;;;;;;;16.33;7.63;;;10.70;99.90;;;;;;4966102;28;20469;-74
2024/02/05 09:19:24;;;;;;;18.37;5.77;;;10.70;99.90;;;;;;4972246;28;20214;-73
2024/02/05 09:21:51;;;;;;;19.63;7.47;;;10.70;99.90;;;;;;4979852;28;20461;-75
2024/02/05 09:24:20;;;;;;;19.93;6.57;;;10.80;99.90;;;;;;4972508;28;20203;-76
2024/02/05 09:26:47;;;;;;;14.83;6.20;;;10.80;99.90;;;;;;4976956;28;20485;-74
2024/02/05 09:29:14;;;;;;;23.60;7.10;;;10.70;99.90;;;;;;4959070;28;20456;-74
2024/02/05 09:31:41;;;;;;;15.87;7.97;;;10.70;99.90;;;;;;4980283;28;20211;-74
2024/02/05 09:34:09;;;;;;;21.55;7.30;;;10.80;99.90;;;;;;4979103;28;20547;-70
2024/02/05 09:36:36;;;;;;;15.60;7.00;;;10.80;99.90;;;;;;4972717;28;20207;-73
2024/02/05 09:39:04;;;;;;;27.50;5.20;;;10.80;99.90;;;;;;4972470;28;20458;-70
2024/02/05 09:41:34;;;;;;;14.83;5.77;;;10.80;99.90;;;;;;4982493;28;20505;-70
2024/02/05 09:44:03;;;;;;;15.63;5.87;;;10.90;99.90;;;;;;4970882;28;20482;-70
2024/02/05 09:46:32;;;;;;;14.20;6.23;;;10.90;99.90;;;;;;4975932;28;20938;-72
2024/02/05 09:49:00;;;;;;;18.83;6.72;;;11.00;99.90;;;;;;4980914;28;20452;-72
2024/02/05 09:51:30;;;;;;;20.30;5.70;;;11.00;99.90;;;;;;4985339;28;20202;-72
2024/02/05 09:53:57;;;;;;;17.13;5.97;;;11.00;99.90;;;;;;4984070;28;20482;-72
2024/02/05 09:56:27;;;;;;;18.13;6.33;;;11.00;99.90;;;;;;4985040;28;20447;-76
2024/02/05 09:58:57;;;;;;;18.13;5.40;;;11.10;99.90;;;;;;4978995;28;20884;-74
2024/02/05 10:01:25;;;;;;;18.38;6.43;;;11.10;99.90;;;;;;4985524;28;20519;-74
2024/02/05 10:03:53;;;;;;;15.70;5.77;;;11.00;99.90;;;;;;4975432;28;20227;-73
2024/02/05 10:06:22;;;;;;;14.30;5.00;;;11.10;99.90;;;;;;4982701;28;20489;-76
2024/02/05 10:08:54;;;;;;;21.17;5.87;;;11.20;99.90;;;;;;4956186;28;20839;-74
2024/02/05 10:11:22;;;;;;;19.27;6.50;;;11.30;99.90;;;;;;4972604;28;20458;-74
2024/02/05 10:13:49;;;;;;;23.42;5.80;;;11.30;99.90;;;;;;4974861;28;20464;-74
2024/02/05 10:16:16;;;;;;;14.63;5.33;;;11.30;99.90;;;;;;4975591;28;20227;-74
2024/02/05 10:18:42;;;;;;;28.00;5.57;;;11.30;99.90;;;;;;4978870;28;20942;-74
2024/02/05 10:21:11;;;;;;;17.63;4.60;;;11.40;99.90;;;;;;4970785;28;20458;-74
2024/02/05 10:23:41;;;;;;;12.87;4.80;;;11.60;99.90;;;;;;4971992;28;20516;-74
2024/02/05 10:26:09;;;;;;;20.60;5.97;;;11.80;99.90;;;;;;4971342;28;20487;-74
2024/02/05 10:28:38;;;;;;;11.13;3.87;;;12.00;99.90;;;;;;4971560;28;20459;-75
2024/02/05 10:31:07;;;;;;;13.57;5.20;;;12.10;99.90;;;;;;4968954;28;20819;-74
2024/02/05 10:33:35;;;;;;;15.13;5.93;;;12.00;99.90;;;;;;4974200;28;20475;-74
2024/02/05 10:36:02;;;;;;;14.37;6.00;;;12.20;99.90;;;;;;4980844;28;20454;-75
2024/02/05 10:38:29;;;;;;;16.83;4.30;;;12.30;99.90;;;;;;4975465;28;20455;-76
2024/02/05 10:40:56;;;;;;;12.23;4.40;;;12.40;99.90;;;;;;4980072;28;20454;-75
2024/02/05 10:43:27;;;;;;;22.47;5.57;;;12.40;99.90;;;;;;4969261;28;20474;-76
2024/02/05 10:46:00;;;;;;;24.13;5.97;;;12.50;99.90;;;;;;4972513;28;20483;-74
2024/02/05 10:48:27;;;;;;;21.23;4.90;;;12.30;99.90;;;;;;4971931;28;20542;-75
2024/02/05 10:50:54;;;;;;;18.20;4.63;;;12.60;99.90;;;;;;4968215;28;20465;-74
2024/02/05 10:53:23;;;;;;;16.90;4.73;;;12.40;99.90;;;;;;4973788;28;20490;-74
2024/02/05 10:55:51;;;;;;;19.43;5.30;;;12.50;99.90;;;;;;4976573;28;20555;-74
2024/02/05 10:58:19;;;;;;;25.33;6.37;;;12.60;99.90;;;;;;4955239;28;20959;-74
2024/02/05 11:00:47;;;;;;;20.30;6.00;;;12.90;99.90;;;;;;4977435;28;20460;-75
2024/02/05 11:03:19;;;;;;;20.67;5.40;;;12.70;99.90;;;;;;4954689;28;20482;-75
2024/02/05 11:05:52;;;;;;;15.53;3.83;;;12.70;99.90;;;;;;4982531;28;20487;-74
2024/02/05 11:08:23;;;;;;;18.73;5.03;;;12.70;99.90;;;;;;4982183;28;20458;-74
2024/02/05 11:10:55;;;;;;;20.33;5.70;;;12.90;99.90;;;;;;4982109;28;20955;-74
2024/02/05 11:13:25;;;;;;;21.60;5.70;;;13.00;99.90;;;;;;4973101;28;20569;-75
2024/02/05 11:15:55;;;;;;;25.50;5.90;;;12.90;99.90;;;;;;4977023;28;20463;-74
2024/02/05 11:18:27;;;;;;;27.80;7.97;;;13.10;99.90;;;;;;4980989;28;20462;-74
2024/02/05 11:20:57;;;;;;;13.80;4.53;;;13.30;99.90;;;;;;4985315;28;20463;-74
2024/02/05 11:23:27;;;;;;;20.90;5.37;;;12.90;99.90;;;;;;4983847;28;20474;-75
2024/02/05 11:25:53;;;;;;;20.23;5.40;;;12.90;99.90;;;;;;4981152;28;20474;-75
2024/02/05 11:28:20;;;;;;;12.83;4.20;;;13.00;99.90;;;;;;4982465;28;20455;-76
2024/02/05 11:30:51;;;;;;;14.70;4.40;;;12.70;99.90;;;;;;4972228;28;20465;-75
2024/02/05 11:33:26;;;;;;;18.03;5.50;;;12.40;99.90;;;;;;4980464;28;20485;-74
2024/02/05 11:35:56;;;;;;;14.63;4.40;;;12.20;99.90;;;;;;4967295;28;20489;-75
2024/02/05 11:38:23;;;;;;;14.37;5.73;;;12.00;99.90;;;;;;4973418;28;20829;-75
2024/02/05 11:40:50;;;;;;;21.90;5.93;;;12.00;99.90;;;;;;4978315;28;20468;-74
2024/02/05 11:43:23;;;;;;;14.80;5.20;;;12.10;99.90;;;;;;4976878;28;20994;-74
2024/02/05 11:45:50;;;;;;;20.27;5.07;;;12.00;99.90;;;;;;4967497;28;21054;-74
2024/02/05 11:48:19;;;;;;;18.50;4.50;;;11.90;99.90;;;;;;4954228;28;20467;-75
2024/02/05 11:50:47;;;;;;;12.07;5.23;;;12.20;99.90;;;;;;4958260;28;20462;-74
2024/02/05 11:53:15;;;;;;;11.77;4.80;;;12.70;99.90;;;;;;4973575;28;20474;-75
2024/02/05 11:55:42;;;;;;;19.87;5.23;;;13.20;99.90;;;;;;4969873;28;20460;-74
2024/02/05 11:58:11;;;;;;;21.10;6.57;;;13.60;99.90;;;;;;4969739;28;20561;-75
2024/02/05 12:00:38;;;;;;;27.80;7.10;;;13.60;99.10;;;;;;4973309;28;20459;-74
2024/02/05 12:03:06;;;;;;;17.60;5.13;;;13.80;99.20;;;;;;4973505;28;20475;-75
2024/02/05 12:05:33;;;;;;;11.13;3.87;;;13.50;99.00;;;;;;4973162;28;20459;-76
2024/02/05 12:08:02;;;;;;;21.43;5.50;;;13.80;99.20;;;;;;4973561;28;20455;-74
2024/02/05 12:10:29;;;;;;;17.37;4.83;;;13.70;98.70;;;;;;4970616;28;20456;-75
2024/02/05 12:12:56;;;;;;;16.73;5.20;;;13.70;99.10;;;;;;4959613;28;20625;-74
2024/02/05 12:15:27;;;;;;;15.43;4.57;;;14.00;96.30;;;;;;4973172;28;20463;-74
2024/02/05 12:18:00;;;;;;;21.53;6.10;;;14.10;92.70;;;;;;4973319;28;20447;-75
2024/02/05 12:20:27;;;;;;;21.23;4.83;;;14.40;92.80;;;;;;4978901;28;20458;-74
2024/02/05 12:22:54;;;;;;;20.93;5.23;;;14.30;92.70;;;;;;4958647;28;20506;-75
2024/02/05 12:25:23;;;;;;;19.47;5.30;;;14.40;92.80;;;;;;4973805;28;20462;-74